sensor_id;sensor_type;location;lat;lon;timestamp;pressure;altitude;pressure_sealevel;temperature;humidity
45731;BME280;31440;48.584;13.460;2023-02-19T00:02:46;97186.00;;;7.07;100.00
45731;BME280;31440;48.584;13.460;2023-02-19T00:05:51;97181.94;;;6.93;100.00
45731;BME280;31440;48.584;13.460;2023-02-19T00:08:56;97184.53;;;6.93;100.00
45731;BME280;31440;48.584;13.460;2023-02-19T00:12:01;97177.72;;;6.89;100.00
45731;BME280;31440;48.584;13.460;2023-02-19T00:15:06;97185.72;;;6.76;100.00
45731;BME280;31440;48.584;13.460;2023-02-19T00:18:11;97163.84;;;6.46;100.00
45731;BME280;31440;48.584;13.460;2023-02-19T00:21:16;97141.06;;;6.18;100.00
45731;BME280;31440;48.584;13.460;2023-02-19T00:24:21;97175.72;;;6.57;100.00
45731;BME280;31440;48.584;13.460;2023-02-19T00:27:25;97141.63;;;6.37;100.00
45731;BME280;31440;48.584;13.460;2023-02-19T00:30:30;97169.16;;;6.40;100.00
45731;BME280;31440;48.584;13.460;2023-02-19T00:33:35;97150.38;;;6.27;100.00
45731;BME280;31440;48.584;13.460;2023-02-19T00:36:41;97140.84;;;6.30;100.00
45731;BME280;31440;48.584;13.460;2023-02-19T00:39:45;97171.56;;;6.47;100.00
45731;BME280;31440;48.584;13.460;2023-02-19T00:42:51;97170.63;;;6.53;100.00
45731;BME280;31440;48.584;13.460;2023-02-19T00:45:55;97166.41;;;6.47;100.00
45731;BME280;31440;48.584;13.460;2023-02-19T00:49:00;97133.97;;;6.29;100.00
45731;BME280;31440;48.584;13.460;2023-02-19T00:52:05;97176.81;;;6.43;100.00
45731;BME280;31440;48.584;13.460;2023-02-19T00:55:10;97164.91;;;6.35;100.00
45731;BME280;31440;48.584;13.460;2023-02-19T00:58:14;97166.34;;;6.52;100.00
45731;BME280;31440;48.584;13.460;2023-02-19T01:01:19;97133.59;;;6.01;100.00
45731;BME280;31440;48.584;13.460;2023-02-19T01:04:24;97127.31;;;6.18;100.00
45731;BME280;31440;48.584;13.460;2023-02-19T01:07:29;97153.50;;;6.47;100.00
45731;BME280;31440;48.584;13.460;2023-02-19T01:10:34;97133.38;;;6.15;100.00
45731;BME280;31440;48.584;13.460;2023-02-19T01:13:39;97126.59;;;6.07;100.00
45731;BME280;31440;48.584;13.460;2023-02-19T01:16:44;97147.00;;;6.23;100.00
45731;BME280;31440;48.584;13.460;2023-02-19T01:19:49;97147.50;;;6.45;100.00
45731;BME280;31440;48.584;13.460;2023-02-19T01:22:54;97157.34;;;6.23;100.00
45731;BME280;31440;48.584;13.460;2023-02-19T01:25:58;97135.06;;;6.16;100.00
45731;BME280;31440;48.584;13.460;2023-02-19T01:29:03;97130.56;;;6.27;100.00
45731;BME280;31440;48.584;13.460;2023-02-19T01:32:08;97152.06;;;6.28;100.00
45731;BME280;31440;48.584;13.460;2023-02-19T01:35:13;97112.41;;;6.35;100.00
45731;BME280;31440;48.584;13.460;2023-02-19T01:38:18;97129.41;;;6.45;100.00
45731;BME280;31440;48.584;13.460;2023-02-19T01:41:24;97093.47;;;6.31;100.00
45731;BME280;31440;48.584;13.460;2023-02-19T01:47:33;97090.28;;;6.65;100.00
45731;BME280;31440;48.584;13.460;2023-02-19T01:50:46;97096.94;;;6.33;100.00
45731;BME280;31440;48.584;13.460;2023-02-19T01:53:55;97109.50;;;6.52;100.00
45731;BME280;31440;48.584;13.460;2023-02-19T01:57:03;97108.69;;;6.48;100.00
45731;BME280;31440;48.584;13.460;2023-02-19T02:00:12;97102.13;;;6.29;100.00
45731;BME280;31440;48.584;13.460;2023-02-19T02:03:18;97062.47;;;6.34;100.00
45731;BME280;31440;48.584;13.460;2023-02-19T02:06:26;97096.94;;;6.32;100.00
45731;BME280;31440;48.584;13.460;2023-02-19T02:09:31;97087.38;;;6.39;100.00
45731;BME280;31440;48.584;13.460;2023-02-19T02:12:56;97088.28;;;6.36;100.00
45731;BME280;31440;48.584;13.460;2023-02-19T02:16:12;97082.94;;;6.44;100.00
45731;BME280;31440;48.584;13.460;2023-02-19T02:19:43;97074.22;;;6.51;100.00
45731;BME280;31440;48.584;13.460;2023-02-19T02:23:15;97074.28;;;6.46;100.00
45731;BME280;31440;48.584;13.460;2023-02-19T02:26:57;97062.88;;;6.59;100.00
45731;BME280;31440;48.584;13.460;2023-02-19T02:30:26;97052.69;;;6.50;100.00
45731;BME280;31440;48.584;13.460;2023-02-19T02:33:38;97059.06;;;6.31;100.00
45731;BME280;31440;48.584;13.460;2023-02-19T02:36:48;97049.97;;;6.58;100.00
45731;BME280;31440;48.584;13.460;2023-02-19T02:39:56;97047.59;;;6.47;100.00
45731;BME280;31440;48.584;13.460;2023-02-19T02:43:02;97037.03;;;6.59;100.00
45731;BME280;31440;48.584;13.460;2023-02-19T02:46:13;97042.28;;;6.55;100.00
45731;BME280;31440;48.584;13.460;2023-02-19T02:49:23;97020.09;;;6.45;100.00
45731;BME280;31440;48.584;13.460;2023-02-19T02:52:29;97025.28;;;6.43;100.00
45731;BME280;31440;48.584;13.460;2023-02-19T02:55:52;97025.00;;;6.58;100.00
45731;BME280;31440;48.584;13.460;2023-02-19T02:59:00;96991.06;;;6.30;100.00
45731;BME280;31440;48.584;13.460;2023-02-19T03:02:15;97020.69;;;6.59;100.00
45731;BME280;31440;48.584;13.460;2023-02-19T03:05:24;97019.88;;;6.55;100.00
45731;BME280;31440;48.584;13.460;2023-02-19T03:09:04;96996.94;;;6.40;100.00
45731;BME280;31440;48.584;13.460;2023-02-19T03:12:13;97005.69;;;6.33;100.00
45731;BME280;31440;48.584;13.460;2023-02-19T03:15:43;97002.75;;;6.50;100.00
45731;BME280;31440;48.584;13.460;2023-02-19T03:19:10;96974.38;;;6.48;100.00
45731;BME280;31440;48.584;13.460;2023-02-19T03:22:30;96970.78;;;6.11;100.00
45731;BME280;31440;48.584;13.460;2023-02-19T03:25:38;96993.34;;;6.47;100.00
45731;BME280;31440;48.584;13.460;2023-02-19T03:29:13;96997.53;;;6.07;100.00
45731;BME280;31440;48.584;13.460;2023-02-19T03:32:33;97007.97;;;6.48;100.00
45731;BME280;31440;48.584;13.460;2023-02-19T03:35:46;96997.44;;;6.59;100.00
45731;BME280;31440;48.584;13.460;2023-02-19T03:43:06;96989.00;;;6.49;100.00
45731;BME280;31440;48.584;13.460;2023-02-19T03:46:14;96992.88;;;6.25;100.00
45731;BME280;31440;48.584;13.460;2023-02-19T03:49:33;96964.22;;;6.41;100.00
45731;BME280;31440;48.584;13.460;2023-02-19T03:52:51;96940.56;;;6.17;100.00
45731;BME280;31440;48.584;13.460;2023-02-19T03:56:09;96908.56;;;6.24;100.00
45731;BME280;31440;48.584;13.460;2023-02-19T03:59:19;96970.09;;;6.47;100.00
45731;BME280;31440;48.584;13.460;2023-02-19T04:02:33;96957.75;;;6.60;100.00
45731;BME280;31440;48.584;13.460;2023-02-19T04:05:49;96963.03;;;6.57;100.00
45731;BME280;31440;48.584;13.460;2023-02-19T04:08:58;96959.69;;;6.52;100.00
45731;BME280;31440;48.584;13.460;2023-02-19T04:12:05;96962.28;;;6.50;100.00
45731;BME280;31440;48.584;13.460;2023-02-19T04:15:15;96966.84;;;6.39;100.00
45731;BME280;31440;48.584;13.460;2023-02-19T04:18:28;96951.47;;;6.30;100.00
45731;BME280;31440;48.584;13.460;2023-02-19T04:21:36;96937.75;;;6.28;100.00
45731;BME280;31440;48.584;13.460;2023-02-19T04:24:45;96946.47;;;6.65;100.00
45731;BME280;31440;48.584;13.460;2023-02-19T04:27:51;96950.31;;;6.46;100.00
45731;BME280;31440;48.584;13.460;2023-02-19T04:30:56;96940.66;;;6.56;100.00
45731;BME280;31440;48.584;13.460;2023-02-19T04:34:02;96908.44;;;6.30;100.00
45731;BME280;31440;48.584;13.460;2023-02-19T04:37:07;96958.09;;;6.45;100.00
45731;BME280;31440;48.584;13.460;2023-02-19T04:40:11;96927.25;;;5.92;100.00
45731;BME280;31440;48.584;13.460;2023-02-19T04:43:17;96944.63;;;6.27;100.00
45731;BME280;31440;48.584;13.460;2023-02-19T04:46:22;96942.47;;;6.51;100.00
45731;BME280;31440;48.584;13.460;2023-02-19T04:49:26;96940.66;;;6.56;100.00
45731;BME280;31440;48.584;13.460;2023-02-19T04:52:31;96948.25;;;6.20;100.00
45731;BME280;31440;48.584;13.460;2023-02-19T04:55:38;96916.59;;;6.11;100.00
45731;BME280;31440;48.584;13.460;2023-02-19T04:58:43;96944.75;;;6.23;100.00
45731;BME280;31440;48.584;13.460;2023-02-19T05:01:48;96922.69;;;6.07;100.00
45731;BME280;31440;48.584;13.460;2023-02-19T05:04:53;96930.56;;;6.00;100.00
45731;BME280;31440;48.584;13.460;2023-02-19T05:07:58;96920.00;;;6.11;100.00
45731;BME280;31440;48.584;13.460;2023-02-19T05:11:04;96940.56;;;6.17;100.00
45731;BME280;31440;48.584;13.460;2023-02-19T05:14:09;96914.22;;;6.00;100.00
45731;BME280;31440;48.584;13.460;2023-02-19T05:17:13;96903.00;;;6.02;100.00
45731;BME280;31440;48.584;13.460;2023-02-19T05:20:18;96921.44;;;6.26;100.00
45731;BME280;31440;48.584;13.460;2023-02-19T05:23:23;96939.66;;;6.61;100.00
45731;BME280;31440;48.584;13.460;2023-02-19T05:26:28;96902.38;;;6.33;100.00
45731;BME280;31440;48.584;13.460;2023-02-19T05:29:34;96921.22;;;6.38;100.00
45731;BME280;31440;48.584;13.460;2023-02-19T05:32:39;96933.78;;;6.55;100.00
45731;BME280;31440;48.584;13.460;2023-02-19T05:35:46;96935.09;;;6.31;100.00
45731;BME280;31440;48.584;13.460;2023-02-19T05:38:55;96950.69;;;6.26;100.00
45731;BME280;31440;48.584;13.460;2023-02-19T05:42:00;96922.25;;;6.28;100.00
45731;BME280;31440;48.584;13.460;2023-02-19T05:45:05;96943.88;;;6.24;100.00
45731;BME280;31440;48.584;13.460;2023-02-19T05:48:10;96946.69;;;6.12;100.00
45731;BME280;31440;48.584;13.460;2023-02-19T05:51:17;96957.34;;;5.95;100.00
45731;BME280;31440;48.584;13.460;2023-02-19T05:54:22;96957.22;;;6.01;100.00
45731;BME280;31440;48.584;13.460;2023-02-19T05:57:27;96934.19;;;5.90;100.00
45731;BME280;31440;48.584;13.460;2023-02-19T06:00:32;96979.53;;;6.05;100.00
45731;BME280;31440;48.584;13.460;2023-02-19T06:03:37;96957.31;;;5.96;100.00
45731;BME280;31440;48.584;13.460;2023-02-19T06:06:41;96967.69;;;5.93;100.00
45731;BME280;31440;48.584;13.460;2023-02-19T06:09:49;96950.22;;;6.06;100.00
45731;BME280;31440;48.584;13.460;2023-02-19T06:12:54;96955.00;;;5.83;100.00
45731;BME280;31440;48.584;13.460;2023-02-19T06:15:59;96966.00;;;5.91;100.00
45731;BME280;31440;48.584;13.460;2023-02-19T06:19:06;96986.63;;;5.92;100.00
45731;BME280;31440;48.584;13.460;2023-02-19T06:22:13;96973.72;;;5.92;100.00
45731;BME280;31440;48.584;13.460;2023-02-19T06:25:18;96953.72;;;5.56;100.00
45731;BME280;31440;48.584;13.460;2023-02-19T06:28:23;96996.06;;;5.93;100.00
45731;BME280;31440;48.584;13.460;2023-02-19T06:31:28;96971.09;;;5.95;100.00
45731;BME280;31440;48.584;13.460;2023-02-19T06:34:33;96979.66;;;5.97;100.00
45731;BME280;31440;48.584;13.460;2023-02-19T06:37:38;96993.38;;;6.01;100.00
45731;BME280;31440;48.584;13.460;2023-02-19T06:40:42;97002.53;;;6.16;100.00
45731;BME280;31440;48.584;13.460;2023-02-19T06:43:47;96978.13;;;5.87;100.00
45731;BME280;31440;48.584;13.460;2023-02-19T06:46:54;96983.53;;;5.72;100.00
45731;BME280;31440;48.584;13.460;2023-02-19T06:49:59;97001.50;;;5.78;100.00
45731;BME280;31440;48.584;13.460;2023-02-19T06:53:03;97041.47;;;6.05;100.00
45731;BME280;31440;48.584;13.460;2023-02-19T06:56:30;97046.16;;;5.83;100.00
45731;BME280;31440;48.584;13.460;2023-02-19T06:59:35;97041.03;;;5.80;100.00
45731;BME280;31440;48.584;13.460;2023-02-19T07:02:40;97016.91;;;5.83;100.00
45731;BME280;31440;48.584;13.460;2023-02-19T07:05:45;97048.66;;;5.88;100.00
45731;BME280;31440;48.584;13.460;2023-02-19T07:08:50;97039.56;;;5.67;100.00
45731;BME280;31440;48.584;13.460;2023-02-19T07:11:55;97064.22;;;5.83;100.00
45731;BME280;31440;48.584;13.460;2023-02-19T07:15:00;97052.44;;;5.69;100.00
45731;BME280;31440;48.584;13.460;2023-02-19T07:18:05;97052.44;;;5.69;100.00
45731;BME280;31440;48.584;13.460;2023-02-19T07:21:15;97045.59;;;5.66;100.00
45731;BME280;31440;48.584;13.460;2023-02-19T07:24:20;97059.88;;;5.85;100.00
45731;BME280;31440;48.584;13.460;2023-02-19T07:27:25;97068.38;;;5.90;100.00
45731;BME280;31440;48.584;13.460;2023-02-19T07:30:30;97077.13;;;5.83;100.00
45731;BME280;31440;48.584;13.460;2023-02-19T07:33:35;97064.19;;;5.85;100.00
45731;BME280;31440;48.584;13.460;2023-02-19T07:36:39;97092.38;;;5.95;100.00
45731;BME280;31440;48.584;13.460;2023-02-19T07:39:44;97094.09;;;5.96;100.00
45731;BME280;31440;48.584;13.460;2023-02-19T07:42:49;97080.56;;;5.84;100.00
45731;BME280;31440;48.584;13.460;2023-02-19T07:45:53;97067.91;;;5.69;100.00
45731;BME280;31440;48.584;13.460;2023-02-19T07:48:58;97104.72;;;5.78;100.00
45731;BME280;31440;48.584;13.460;2023-02-19T07:52:03;97112.94;;;6.03;100.00
45731;BME280;31440;48.584;13.460;2023-02-19T07:55:08;97119.06;;;5.94;100.00
45731;BME280;31440;48.584;13.460;2023-02-19T07:58:12;97104.09;;;6.15;100.00
45731;BME280;31440;48.584;13.460;2023-02-19T08:01:19;97114.25;;;6.25;100.00
45731;BME280;31440;48.584;13.460;2023-02-19T08:04:47;97114.34;;;6.21;100.00
45731;BME280;31440;48.584;13.460;2023-02-19T08:07:51;97098.94;;;6.15;100.00
45731;BME280;31440;48.584;13.460;2023-02-19T08:11:03;97105.81;;;6.65;100.00
45731;BME280;31440;48.584;13.460;2023-02-19T08:14:27;97071.94;;;6.35;100.00
45731;BME280;31440;48.584;13.460;2023-02-19T08:17:31;97090.78;;;6.41;100.00
45731;BME280;31440;48.584;13.460;2023-02-19T08:20:36;97120.13;;;6.37;100.00
45731;BME280;31440;48.584;13.460;2023-02-19T08:23:41;97098.66;;;6.30;100.00
45731;BME280;31440;48.584;13.460;2023-02-19T08:26:46;97122.75;;;6.33;100.00
45731;BME280;31440;48.584;13.460;2023-02-19T08:29:50;97130.72;;;6.18;100.00
45731;BME280;31440;48.584;13.460;2023-02-19T08:32:57;97126.88;;;6.42;100.00
45731;BME280;31440;48.584;13.460;2023-02-19T08:36:03;97100.38;;;6.31;100.00
45731;BME280;31440;48.584;13.460;2023-02-19T08:39:09;97135.25;;;6.56;100.00
45731;BME280;31440;48.584;13.460;2023-02-19T08:42:13;97136.19;;;6.52;100.00
45731;BME280;31440;48.584;13.460;2023-02-19T08:45:18;97106.47;;;6.27;100.00
45731;BME280;31440;48.584;13.460;2023-02-19T08:48:23;97113.75;;;6.56;100.00
45731;BME280;31440;48.584;13.460;2023-02-19T08:51:27;97130.56;;;6.77;100.00
45731;BME280;31440;48.584;13.460;2023-02-19T08:54:32;97141.59;;;6.85;100.00
45731;BME280;31440;48.584;13.460;2023-02-19T08:57:37;97147.81;;;6.76;100.00
45731;BME280;31440;48.584;13.460;2023-02-19T09:00:41;97132.50;;;6.65;100.00
45731;BME280;31440;48.584;13.460;2023-02-19T09:03:46;97140.59;;;6.93;100.00
45731;BME280;31440;48.584;13.460;2023-02-19T09:06:51;97147.50;;;6.91;100.00
45731;BME280;31440;48.584;13.460;2023-02-19T09:09:55;97145.13;;;6.81;100.00
45731;BME280;31440;48.584;13.460;2023-02-19T09:13:00;97153.31;;;7.02;100.00
45731;BME280;31440;48.584;13.460;2023-02-19T09:16:05;97158.06;;;6.79;100.00
45731;BME280;31440;48.584;13.460;2023-02-19T09:19:10;97167.38;;;6.89;100.00
45731;BME280;31440;48.584;13.460;2023-02-19T09:22:15;97169.84;;;6.95;100.00
45731;BME280;31440;48.584;13.460;2023-02-19T09:25:20;97166.31;;;6.98;100.00
45731;BME280;31440;48.584;13.460;2023-02-19T09:28:25;97187.13;;;6.93;100.00
45731;BME280;31440;48.584;13.460;2023-02-19T09:31:30;97152.09;;;6.77;100.00
45731;BME280;31440;48.584;13.460;2023-02-19T09:34:35;97167.34;;;6.91;100.00
45731;BME280;31440;48.584;13.460;2023-02-19T09:37:42;97142.91;;;7.05;100.00
45731;BME280;31440;48.584;13.460;2023-02-19T09:40:46;97161.16;;;6.98;100.00
45731;BME280;31440;48.584;13.460;2023-02-19T09:43:51;97186.41;;;7.28;100.00
45731;BME280;31440;48.584;13.460;2023-02-19T09:46:57;97184.22;;;7.09;100.00
45731;BME280;31440;48.584;13.460;2023-02-19T09:50:08;97158.03;;;7.25;100.00
45731;BME280;31440;48.584;13.460;2023-02-19T09:53:18;97183.97;;;7.21;100.00
45731;BME280;31440;48.584;13.460;2023-02-19T09:56:25;97175.16;;;7.31;100.00
45731;BME280;31440;48.584;13.460;2023-02-19T09:59:40;97185.53;;;7.69;100.00
45731;BME280;31440;48.584;13.460;2023-02-19T10:02:45;97163.63;;;7.46;100.00
45731;BME280;31440;48.584;13.460;2023-02-19T10:05:51;97185.41;;;7.34;100.00
45731;BME280;31440;48.584;13.460;2023-02-19T10:09:21;97166.19;;;7.47;100.00
45731;BME280;31440;48.584;13.460;2023-02-19T10:12:30;97156.72;;;7.46;100.00
45731;BME280;31440;48.584;13.460;2023-02-19T10:15:38;97146.25;;;7.51;100.00
45731;BME280;31440;48.584;13.460;2023-02-19T10:18:45;97156.13;;;7.32;100.00
45731;BME280;31440;48.584;13.460;2023-02-19T10:21:50;97157.13;;;7.28;100.00
45731;BME280;31440;48.584;13.460;2023-02-19T10:24:55;97169.41;;;7.15;100.00
45731;BME280;31440;48.584;13.460;2023-02-19T10:28:01;97188.47;;;7.53;100.00
45731;BME280;31440;48.584;13.460;2023-02-19T10:31:26;97197.81;;;7.60;100.00
45731;BME280;31440;48.584;13.460;2023-02-19T10:34:30;97187.78;;;7.46;100.00
45731;BME280;31440;48.584;13.460;2023-02-19T10:37:41;97172.06;;;7.54;100.00
45731;BME280;31440;48.584;13.460;2023-02-19T10:40:47;97184.38;;;7.43;100.00
45731;BME280;31440;48.584;13.460;2023-02-19T10:44:12;97217.38;;;7.73;100.00
45731;BME280;31440;48.584;13.460;2023-02-19T10:47:21;97227.78;;;7.70;100.00
45731;BME280;31440;48.584;13.460;2023-02-19T10:50:30;97200.13;;;7.32;100.00
45731;BME280;31440;48.584;13.460;2023-02-19T10:53:44;97226.66;;;7.42;100.00
45731;BME280;31440;48.584;13.460;2023-02-19T10:56:49;97214.63;;;7.40;100.00
45731;BME280;31440;48.584;13.460;2023-02-19T11:03:13;97227.97;;;7.19;100.00
45731;BME280;31440;48.584;13.460;2023-02-19T11:06:24;97222.63;;;7.28;100.00
45731;BME280;31440;48.584;13.460;2023-02-19T11:09:36;97185.38;;;6.94;100.00
45731;BME280;31440;48.584;13.460;2023-02-19T11:12:47;97228.94;;;7.57;100.00
45731;BME280;31440;48.584;13.460;2023-02-19T11:15:53;97211.59;;;7.62;100.00
45731;BME280;31440;48.584;13.460;2023-02-19T11:18:58;97201.81;;;7.74;100.00
45731;BME280;31440;48.584;13.460;2023-02-19T11:25:32;97175.28;;;7.65;100.00
45731;BME280;31440;48.584;13.460;2023-02-19T11:28:40;97215.16;;;7.95;100.00
45731;BME280;31440;48.584;13.460;2023-02-19T11:31:46;97207.72;;;8.18;100.00
45731;BME280;31440;48.584;13.460;2023-02-19T11:35:03;97210.56;;;8.44;100.00
45731;BME280;31440;48.584;13.460;2023-02-19T11:38:17;97186.84;;;8.26;100.00
45731;BME280;31440;48.584;13.460;2023-02-19T11:45:10;97202.31;;;8.29;100.00
45731;BME280;31440;48.584;13.460;2023-02-19T11:55:21;97197.03;;;7.95;100.00
45731;BME280;31440;48.584;13.460;2023-02-19T11:58:40;97199.25;;;7.73;100.00
45731;BME280;31440;48.584;13.460;2023-02-19T12:02:02;97200.59;;;7.51;100.00
45731;BME280;31440;48.584;13.460;2023-02-19T12:05:19;97207.56;;;7.87;100.00
45731;BME280;31440;48.584;13.460;2023-02-19T12:08:54;97167.44;;;7.29;100.00
45731;BME280;31440;48.584;13.460;2023-02-19T12:15:55;97182.25;;;7.21;100.00
45731;BME280;31440;48.584;13.460;2023-02-19T12:22:29;97214.63;;;7.40;100.00
45731;BME280;31440;48.584;13.460;2023-02-19T12:25:45;97178.84;;;7.59;100.00
45731;BME280;31440;48.584;13.460;2023-02-19T12:29:23;97212.28;;;7.68;100.00
45731;BME280;31440;48.584;13.460;2023-02-19T12:46:11;97211.81;;;7.90;100.00
45731;BME280;31440;48.584;13.460;2023-02-19T12:52:32;97219.19;;;7.68;100.00
45731;BME280;31440;48.584;13.460;2023-02-19T12:55:42;97217.59;;;7.64;100.00
45731;BME280;31440;48.584;13.460;2023-02-19T12:58:52;97182.66;;;7.43;100.00
45731;BME280;31440;48.584;13.460;2023-02-19T13:02:06;97209.38;;;7.44;100.00
45731;BME280;31440;48.584;13.460;2023-02-19T13:05:45;97227.16;;;7.59;100.00
45731;BME280;31440;48.584;13.460;2023-02-19T13:08:53;97201.00;;;6.88;100.00
45731;BME280;31440;48.584;13.460;2023-02-19T13:12:11;97219.78;;;7.40;100.00
45731;BME280;31440;48.584;13.460;2023-02-19T13:15:25;97181.09;;;7.34;100.00
45731;BME280;31440;48.584;13.460;2023-02-19T13:18:41;97214.25;;;7.57;100.00
45731;BME280;31440;48.584;13.460;2023-02-19T13:21:52;97199.03;;;7.44;100.00
45731;BME280;31440;48.584;13.460;2023-02-19T13:25:18;97187.31;;;7.26;100.00
45731;BME280;31440;48.584;13.460;2023-02-19T13:38:48;97182.31;;;7.17;100.00
45731;BME280;31440;48.584;13.460;2023-02-19T13:41:55;97202.91;;;7.23;100.00
45731;BME280;31440;48.584;13.460;2023-02-19T13:45:04;97183.44;;;7.05;100.00
45731;BME280;31440;48.584;13.460;2023-02-19T13:48:25;97223.44;;;7.30;100.00
45731;BME280;31440;48.584;13.460;2023-02-19T13:54:37;97236.03;;;7.49;100.00
45731;BME280;31440;48.584;13.460;2023-02-19T13:57:43;97212.16;;;7.33;100.00
45731;BME280;31440;48.584;13.460;2023-02-19T14:00:51;97226.94;;;7.28;100.00
45731;BME280;31440;48.584;13.460;2023-02-19T14:04:15;97224.66;;;7.13;100.00
45731;BME280;31440;48.584;13.460;2023-02-19T14:10:54;97190.44;;;6.98;100.00
45731;BME280;31440;48.584;13.460;2023-02-19T14:14:01;97194.34;;;7.19;100.00
45731;BME280;31440;48.584;13.460;2023-02-19T14:20:42;97227.13;;;7.19;100.00
45731;BME280;31440;48.584;13.460;2023-02-19T14:23:52;97187.66;;;7.09;100.00
45731;BME280;31440;48.584;13.460;2023-02-19T14:26:59;97192.00;;;7.07;100.00
45731;BME280;31440;48.584;13.460;2023-02-19T14:30:04;97195.91;;;7.28;100.00
45731;BME280;31440;48.584;13.460;2023-02-19T14:33:09;97228.84;;;7.61;100.00
45731;BME280;31440;48.584;13.460;2023-02-19T14:36:20;97235.56;;;7.28;100.00
45731;BME280;31440;48.584;13.460;2023-02-19T14:39:32;97234.28;;;7.49;100.00
45731;BME280;31440;48.584;13.460;2023-02-19T14:42:40;97202.69;;;7.32;100.00
45731;BME280;31440;48.584;13.460;2023-02-19T14:46:06;97235.91;;;7.10;100.00
45731;BME280;31440;48.584;13.460;2023-02-19T14:49:23;97249.66;;;7.55;100.00
45731;BME280;31440;48.584;13.460;2023-02-19T14:52:44;97244.56;;;7.51;100.00
45731;BME280;31440;48.584;13.460;2023-02-19T14:55:52;97255.56;;;7.63;100.00
45731;BME280;31440;48.584;13.460;2023-02-19T15:02:15;97245.09;;;7.26;100.00
45731;BME280;31440;48.584;13.460;2023-02-19T15:05:34;97273.81;;;7.11;100.00
45731;BME280;31440;48.584;13.460;2023-02-19T15:08:44;97277.81;;;7.27;100.00
45731;BME280;31440;48.584;13.460;2023-02-19T15:11:50;97274.69;;;7.10;100.00
45731;BME280;31440;48.584;13.460;2023-02-19T15:14:56;97241.13;;;7.07;100.00
45731;BME280;31440;48.584;13.460;2023-02-19T15:18:03;97268.81;;;7.00;100.00
45731;BME280;31440;48.584;13.460;2023-02-19T15:21:20;97289.25;;;7.14;100.00
45731;BME280;31440;48.584;13.460;2023-02-19T15:24:25;97261.75;;;7.12;100.00
45731;BME280;31440;48.584;13.460;2023-02-19T15:27:31;97273.63;;;7.20;100.00
45731;BME280;31440;48.584;13.460;2023-02-19T15:30:40;97299.53;;;7.17;100.00
45731;BME280;31440;48.584;13.460;2023-02-19T15:33:50;97305.69;;;7.13;100.00
45731;BME280;31440;48.584;13.460;2023-02-19T15:36:58;97312.53;;;7.14;100.00
45731;BME280;31440;48.584;13.460;2023-02-19T15:40:05;97314.41;;;7.06;100.00
45731;BME280;31440;48.584;13.460;2023-02-19T15:46:34;97296.09;;;6.69;100.00
45731;BME280;31440;48.584;13.460;2023-02-19T15:49:50;97313.81;;;6.92;100.00
45731;BME280;31440;48.584;13.460;2023-02-19T15:53:05;97337.13;;;6.89;100.00
45731;BME280;31440;48.584;13.460;2023-02-19T15:56:22;97328.63;;;6.79;100.00
45731;BME280;31440;48.584;13.460;2023-02-19T15:59:38;97299.88;;;6.47;100.00
45731;BME280;31440;48.584;13.460;2023-02-19T16:02:46;97307.47;;;6.59;100.00
45731;BME280;31440;48.584;13.460;2023-02-19T16:06:05;97327.59;;;6.91;100.00
45731;BME280;31440;48.584;13.460;2023-02-19T16:09:22;97338.22;;;6.74;100.00
45731;BME280;31440;48.584;13.460;2023-02-19T16:12:28;97329.38;;;6.89;100.00
45731;BME280;31440;48.584;13.460;2023-02-19T16:15:33;97344.03;;;6.87;100.00
45731;BME280;31440;48.584;13.460;2023-02-19T16:18:43;97325.19;;;6.80;100.00
45731;BME280;31440;48.584;13.460;2023-02-19T16:21:48;97340.56;;;6.89;100.00
45731;BME280;31440;48.584;13.460;2023-02-19T16:24:59;97306.22;;;6.80;100.00
45731;BME280;31440;48.584;13.460;2023-02-19T16:28:21;97366.41;;;6.89;100.00
45731;BME280;31440;48.584;13.460;2023-02-19T16:31:26;97336.25;;;6.88;100.00
45731;BME280;31440;48.584;13.460;2023-02-19T16:34:54;97363.13;;;6.78;100.00
45731;BME280;31440;48.584;13.460;2023-02-19T16:37:58;97364.88;;;6.78;100.00
45731;BME280;31440;48.584;13.460;2023-02-19T16:41:05;97366.91;;;6.57;100.00
45731;BME280;31440;48.584;13.460;2023-02-19T16:47:28;97379.19;;;6.42;100.00
45731;BME280;31440;48.584;13.460;2023-02-19T16:50:33;97354.91;;;6.52;100.00
45731;BME280;31440;48.584;13.460;2023-02-19T16:53:39;97392.91;;;6.44;100.00
45731;BME280;31440;48.584;13.460;2023-02-19T16:56:43;97418.91;;;6.30;100.00
45731;BME280;31440;48.584;13.460;2023-02-19T16:59:48;97416.53;;;6.13;100.00
45731;BME280;31440;48.584;13.460;2023-02-19T17:02:55;97392.91;;;5.72;100.00
45731;BME280;31440;48.584;13.460;2023-02-19T17:06:00;97386.81;;;5.80;100.00
45731;BME280;31440;48.584;13.460;2023-02-19T17:09:07;97428.81;;;5.93;100.00
45731;BME280;31440;48.584;13.460;2023-02-19T17:12:14;97437.50;;;5.86;100.00
45731;BME280;31440;48.584;13.460;2023-02-19T17:15:20;97405.88;;;5.67;100.00
45731;BME280;31440;48.584;13.460;2023-02-19T17:18:24;97407.47;;;5.77;100.00
45731;BME280;31440;48.584;13.460;2023-02-19T17:21:29;97444.38;;;5.87;100.00
45731;BME280;31440;48.584;13.460;2023-02-19T17:24:35;97445.28;;;5.84;100.00
45731;BME280;31440;48.584;13.460;2023-02-19T17:27:40;97428.91;;;5.85;100.00
45731;BME280;31440;48.584;13.460;2023-02-19T17:30:44;97419.53;;;5.77;100.00
45731;BME280;31440;48.584;13.460;2023-02-19T17:33:49;97459.72;;;6.00;100.00
45731;BME280;31440;48.584;13.460;2023-02-19T17:36:55;97454.66;;;5.88;100.00
45731;BME280;31440;48.584;13.460;2023-02-19T17:40:00;97487.31;;;5.94;100.00
45731;BME280;31440;48.584;13.460;2023-02-19T17:43:05;97492.50;;;5.91;100.00
45731;BME280;31440;48.584;13.460;2023-02-19T17:46:17;97502.03;;;5.84;100.00
45731;BME280;31440;48.584;13.460;2023-02-19T17:49:22;97477.38;;;5.54;100.00